createdAt,value
2023-05-08T00:00:56.297Z,82.07
2023-05-08T00:01:56.270Z,82.51
2023-05-08T00:02:56.412Z,82.92
2023-05-08T00:03:56.477Z,82.61
2023-05-08T00:04:56.380Z,82.71
2023-05-08T00:05:56.265Z,82.51
2023-05-08T00:06:56.241Z,82.61
2023-05-08T00:07:56.361Z,82.92
2023-05-08T00:08:56.249Z,83.23
2023-05-08T00:09:56.295Z,83.23
2023-05-08T00:10:56.181Z,82.96
2023-05-08T00:11:56.077Z,82.65
2023-05-08T00:13:17.157Z,82.65
2023-05-08T00:14:29.529Z,82.96
2023-05-08T00:14:57.035Z,82.86
2023-05-08T00:15:56.113Z,83.37
2023-05-08T00:16:56.293Z,83.37
2023-05-08T00:17:56.063Z,83.26
2023-05-08T00:18:56.033Z,83.06
2023-05-08T00:19:56.096Z,82.79
2023-05-08T00:20:56.082Z,82.96
2023-05-08T00:21:56.163Z,82.96
2023-05-08T00:22:56.059Z,82.89
2023-05-08T00:23:56.092Z,82.65
2023-05-08T00:24:56.048Z,82.75
2023-05-08T00:25:55.998Z,83.16
2023-05-08T00:26:56.416Z,83.37
2023-05-08T00:27:56.016Z,83.33
2023-05-08T00:28:56.014Z,82.86
2023-05-08T00:29:55.916Z,83.16
2023-05-08T00:30:55.924Z,83.26
2023-05-08T00:31:56.007Z,83.26
2023-05-08T00:32:56.104Z,83.20
2023-05-08T00:33:56.094Z,82.75
2023-05-08T00:34:56.071Z,83.16
2023-05-08T00:35:55.914Z,83.26
2023-05-08T00:36:55.875Z,83.06
2023-05-08T00:37:56.084Z,82.96
2023-05-08T00:38:55.872Z,83.57
2023-05-08T00:39:55.869Z,82.96
2023-05-08T00:40:55.928Z,82.96
2023-05-08T00:41:55.834Z,83.06
2023-05-08T00:42:55.880Z,82.96
2023-05-08T00:43:55.922Z,83.37
2023-05-08T00:44:55.819Z,83.37
2023-05-08T00:45:56.040Z,83.47
2023-05-08T00:46:55.951Z,83.06
2023-05-08T00:47:55.923Z,83.06
2023-05-08T00:48:55.955Z,82.86
2023-05-08T00:49:55.960Z,82.79
2023-05-08T00:50:55.878Z,83.61
2023-05-08T00:51:55.861Z,82.86
2023-05-08T00:52:55.909Z,83.71
2023-05-08T00:53:55.836Z,83.81
2023-05-08T00:54:55.834Z,83.61
2023-05-08T00:55:55.927Z,83.47
2023-05-08T00:56:55.801Z,83.78
2023-05-08T00:57:55.762Z,82.75
2023-05-08T00:58:55.777Z,83.78
2023-05-08T00:59:55.872Z,83.67
2023-05-08T01:00:55.850Z,83.57
2023-05-08T01:01:55.832Z,83.37
2023-05-08T01:02:55.898Z,83.16
2023-05-08T01:03:55.865Z,83.67
2023-05-08T01:04:55.688Z,82.96
2023-05-08T01:05:55.753Z,83.26
2023-05-08T01:06:55.708Z,83.00
2023-05-08T01:07:55.681Z,83.06
2023-05-08T01:08:55.657Z,83.06
2023-05-08T01:09:55.752Z,82.86
2023-05-08T01:10:55.883Z,83.30
2023-05-08T01:11:55.678Z,83.16
2023-05-08T01:12:55.653Z,82.96
2023-05-08T01:13:55.792Z,83.57
2023-05-08T01:14:55.647Z,83.00
2023-05-08T01:15:55.674Z,83.00
2023-05-08T01:16:55.715Z,83.51
2023-05-08T01:17:55.736Z,83.87
2023-05-08T01:18:55.846Z,83.81
2023-05-08T01:19:55.728Z,83.61
2023-05-08T01:20:55.556Z,83.71
2023-05-08T01:21:55.642Z,83.61
2023-05-08T01:22:55.657Z,84.33
2023-05-08T01:23:55.635Z,84.42
2023-05-08T01:24:55.588Z,83.71
2023-05-08T01:25:55.598Z,83.51
2023-05-08T01:26:55.629Z,83.61
2023-05-08T01:27:56.004Z,83.61
2023-05-08T01:28:55.532Z,83.51
2023-05-08T01:29:55.564Z,83.61
2023-05-08T01:30:55.517Z,83.61
2023-05-08T01:31:55.597Z,83.61
2023-05-08T01:32:55.695Z,84.01
2023-05-08T01:33:55.678Z,84.01
2023-05-08T01:34:55.576Z,84.01
2023-05-08T01:35:55.517Z,84.53
2023-05-08T01:36:55.507Z,84.63
2023-05-08T01:37:55.533Z,83.81
2023-05-08T01:38:55.560Z,83.92
2023-05-08T01:39:55.503Z,83.71
2023-05-08T01:40:55.477Z,83.61
2023-05-08T01:41:55.519Z,84.01
2023-05-08T01:42:55.433Z,83.81
2023-05-08T01:43:55.754Z,83.71
2023-05-08T01:44:55.457Z,84.01
2023-05-08T01:45:55.666Z,84.53
2023-05-08T01:46:55.582Z,84.83
2023-05-08T01:47:55.520Z,84.33
2023-05-08T01:49:05.206Z,84.22
2023-05-08T01:49:56.445Z,83.95
2023-05-08T01:50:55.655Z,84.12
2023-05-08T01:51:55.392Z,83.92
2023-05-08T01:52:55.401Z,84.01
2023-05-08T01:53:55.448Z,83.20
2023-05-08T01:54:55.310Z,83.51
2023-05-08T01:55:55.378Z,83.71
2023-05-08T01:56:55.395Z,83.61
2023-05-08T01:57:55.358Z,83.65
2023-05-08T01:58:55.445Z,83.51
2023-05-08T01:59:55.380Z,83.61
2023-05-08T02:00:55.388Z,83.75
2023-05-08T02:01:55.371Z,83.85
2023-05-08T02:02:55.478Z,83.85
2023-05-08T02:03:55.461Z,84.22
2023-05-08T02:04:55.480Z,84.42
2023-05-08T02:05:55.338Z,84.63
2023-05-08T02:06:55.296Z,84.83
2023-05-08T02:07:55.397Z,84.01
2023-05-08T02:08:55.345Z,83.92
2023-05-08T02:09:55.334Z,84.57
2023-05-08T02:10:55.395Z,84.77
2023-05-08T02:11:55.330Z,84.22
2023-05-08T02:12:55.320Z,84.33
2023-05-08T02:13:55.316Z,83.61
2023-05-08T02:14:55.264Z,84.67
2023-05-08T02:15:55.238Z,84.88
2023-05-08T02:16:55.366Z,83.81
2023-05-08T02:17:55.415Z,84.74
2023-05-08T02:18:55.293Z,84.67
2023-05-08T02:19:55.248Z,84.33
2023-05-08T02:20:55.333Z,84.83
2023-05-08T02:21:55.347Z,85.04
2023-05-08T02:22:55.266Z,84.88
2023-05-08T02:23:55.311Z,84.83
2023-05-08T02:24:55.174Z,84.57
2023-05-08T02:25:55.281Z,84.67
2023-05-08T02:26:55.200Z,84.77
2023-05-08T02:27:55.373Z,84.63
2023-05-08T02:28:55.335Z,83.92
2023-05-08T02:29:55.324Z,83.81
2023-05-08T02:30:55.157Z,83.54
2023-05-08T02:31:55.542Z,83.54
2023-05-08T02:32:55.149Z,83.95
2023-05-08T02:34:15.121Z,84.26
2023-05-08T02:35:02.607Z,84.06
2023-05-08T02:35:57.034Z,83.65
2023-05-08T02:36:55.175Z,83.85
2023-05-08T02:37:55.140Z,83.92
2023-05-08T02:38:55.127Z,84.01
2023-05-08T02:39:55.058Z,84.01
2023-05-08T02:40:55.098Z,83.65
2023-05-08T02:41:55.121Z,83.51
2023-05-08T02:42:55.195Z,83.54
2023-05-08T02:43:55.086Z,83.14
2023-05-08T02:44:55.100Z,82.93
2023-05-08T02:45:55.089Z,83.85
2023-05-08T02:46:55.356Z,83.54
2023-05-08T02:47:55.102Z,83.44
2023-05-08T02:48:55.185Z,83.61
2023-05-08T02:49:55.172Z,83.04
2023-05-08T02:50:54.956Z,83.95
2023-05-08T02:51:55.084Z,84.06
2023-05-08T02:52:55.052Z,84.77
2023-05-08T02:53:55.089Z,84.88
2023-05-08T02:54:54.963Z,84.88
2023-05-08T02:55:54.964Z,83.95
2023-05-08T02:56:54.911Z,83.65
2023-05-08T02:57:54.975Z,83.85
2023-05-08T02:58:54.906Z,83.54
2023-05-08T02:59:54.963Z,83.44
2023-05-08T03:00:54.911Z,83.65
2023-05-08T03:01:54.951Z,83.89
2023-05-08T03:02:54.894Z,84.06
2023-05-08T03:03:54.993Z,83.54
2023-05-08T03:04:54.967Z,84.09
2023-05-08T03:05:54.955Z,84.91
2023-05-08T03:06:54.884Z,83.89
2023-05-08T03:07:54.933Z,84.61
2023-05-08T03:08:54.996Z,84.91
2023-05-08T03:09:54.842Z,84.61
2023-05-08T03:10:54.931Z,85.12
2023-05-08T03:11:54.878Z,84.61
2023-05-08T03:12:54.777Z,84.41
2023-05-08T03:13:54.720Z,84.81
2023-05-08T03:14:54.792Z,84.81
2023-05-08T03:15:54.918Z,84.81
2023-05-08T03:16:54.887Z,84.61
2023-05-08T03:17:54.901Z,84.71
2023-05-08T03:18:54.791Z,84.85
2023-05-08T03:19:55.046Z,84.81
2023-05-08T03:20:54.832Z,84.81
2023-05-08T03:21:54.795Z,85.02
2023-05-08T03:22:54.871Z,84.71
2023-05-08T03:24:00.345Z,84.61
2023-05-08T03:24:54.731Z,84.81
2023-05-08T03:25:54.712Z,85.02
2023-05-08T03:26:54.850Z,84.91
2023-05-08T03:27:54.693Z,84.50
2023-05-08T03:28:54.671Z,84.91
2023-05-08T03:29:54.785Z,85.22
2023-05-08T03:30:54.779Z,84.81
2023-05-08T03:31:54.677Z,84.71
2023-05-08T03:32:55.272Z,85.12
2023-05-08T03:33:54.716Z,84.91
2023-05-08T03:34:54.621Z,85.02
2023-05-08T03:35:54.770Z,84.91
2023-05-08T03:36:54.708Z,85.42
2023-05-08T03:37:54.803Z,84.61
2023-05-08T03:38:54.667Z,84.47
2023-05-08T03:39:54.635Z,84.91
2023-05-08T03:40:54.759Z,84.91
2023-05-08T03:41:54.565Z,84.77
2023-05-08T03:42:54.590Z,85.22
2023-05-08T03:43:54.647Z,84.00
2023-05-08T03:44:54.559Z,83.95
2023-05-08T03:45:54.571Z,84.88
2023-05-08T03:46:54.562Z,84.88
2023-05-08T03:47:54.559Z,84.77
2023-05-08T03:48:54.704Z,84.88
2023-05-08T03:49:54.524Z,84.88
2023-05-08T03:50:54.634Z,84.77
2023-05-08T03:51:54.567Z,84.88
2023-05-08T03:52:54.512Z,84.26
2023-05-08T03:53:54.601Z,84.06
2023-05-08T03:54:54.524Z,84.26
2023-05-08T03:55:54.515Z,84.67
2023-05-08T03:56:54.676Z,84.88
2023-05-08T03:57:54.582Z,84.88
2023-05-08T03:58:54.501Z,84.77
2023-05-08T03:59:54.596Z,84.26
2023-05-08T04:00:54.642Z,84.88
2023-05-08T04:01:54.559Z,84.88
2023-05-08T04:02:54.637Z,83.85
2023-05-08T04:03:54.858Z,83.75
2023-05-08T04:04:54.538Z,83.48
2023-05-08T04:05:54.738Z,83.75
2023-05-08T04:06:55.242Z,83.89
2023-05-08T04:07:54.406Z,84.26
2023-05-08T04:08:54.498Z,84.57
2023-05-08T04:09:54.464Z,84.30
2023-05-08T04:10:54.473Z,83.75
2023-05-08T04:11:54.435Z,84.30
2023-05-08T04:12:54.435Z,83.75
2023-05-08T04:13:54.492Z,83.65
2023-05-08T04:14:56.350Z,83.75
2023-05-08T04:15:55.472Z,83.54
2023-05-08T04:16:54.427Z,83.85
2023-05-08T04:17:54.345Z,83.85
2023-05-08T04:18:54.539Z,84.67
2023-05-08T04:19:54.297Z,84.98
2023-05-08T04:20:54.927Z,84.47
2023-05-08T04:21:54.448Z,84.67
2023-05-08T04:22:54.344Z,84.77
2023-05-08T04:23:54.400Z,83.95
2023-05-08T04:24:54.281Z,83.95
2023-05-08T04:25:54.418Z,83.65
2023-05-08T04:26:54.436Z,83.04
2023-05-08T04:27:54.333Z,83.04
2023-05-08T04:28:54.204Z,83.04
2023-05-08T04:29:54.228Z,83.44
2023-05-08T04:31:08.823Z,83.34
2023-05-08T04:31:54.272Z,83.24
2023-05-08T04:32:54.282Z,83.34
2023-05-08T04:33:54.177Z,82.93
2023-05-08T04:34:54.136Z,82.73
2023-05-08T04:35:54.164Z,83.34
2023-05-08T04:36:54.154Z,82.89
2023-05-08T04:37:54.397Z,83.00
2023-05-08T04:38:54.122Z,83.10
2023-05-08T04:39:54.125Z,82.89
2023-05-08T04:40:54.180Z,82.59
2023-05-08T04:41:54.086Z,82.69
2023-05-08T04:43:17.580Z,82.59
2023-05-08T04:43:54.088Z,82.69
2023-05-08T04:44:54.080Z,82.49
2023-05-08T04:45:54.082Z,82.69
2023-05-08T04:46:54.087Z,82.39
2023-05-08T04:47:54.084Z,82.49
2023-05-08T04:48:54.088Z,82.39
2023-05-08T04:49:54.044Z,82.69
2023-05-08T04:50:54.081Z,82.69
2023-05-08T04:51:54.071Z,82.59
2023-05-08T04:52:54.024Z,82.69
2023-05-08T04:53:54.022Z,83.10
2023-05-08T04:54:54.049Z,82.75
2023-05-08T04:55:55.018Z,82.69
2023-05-08T04:56:53.988Z,82.69
2023-05-08T04:57:53.980Z,82.59
2023-05-08T04:58:53.999Z,80.91
2023-05-08T04:59:54.047Z,81.12
2023-05-08T05:00:53.977Z,81.02
2023-05-08T05:01:53.975Z,81.12
2023-05-08T05:02:54.146Z,81.12
2023-05-08T05:03:54.003Z,81.32
2023-05-08T05:04:53.977Z,81.02
2023-05-08T05:05:54.006Z,81.23
2023-05-08T05:06:53.925Z,81.23
2023-05-08T05:07:53.860Z,81.09
2023-05-08T05:08:53.905Z,80.78
2023-05-08T05:09:53.922Z,80.64
2023-05-08T05:10:53.950Z,80.68
2023-05-08T05:11:53.932Z,80.68
2023-05-08T05:12:53.879Z,80.47
2023-05-08T05:13:53.873Z,80.33
2023-05-08T05:14:53.891Z,80.74
2023-05-08T05:15:53.997Z,80.43
2023-05-08T05:16:53.886Z,80.13
2023-05-08T05:17:53.927Z,79.48
2023-05-08T05:18:53.839Z,80.02
2023-05-08T05:19:53.893Z,79.72
2023-05-08T05:20:53.845Z,79.82
2023-05-08T05:21:53.876Z,79.99
2023-05-08T05:22:53.837Z,79.99
2023-05-08T05:23:53.840Z,79.27
2023-05-08T05:24:53.791Z,79.38
2023-05-08T05:25:53.781Z,78.87
2023-05-08T05:26:53.797Z,79.58
2023-05-08T05:27:53.819Z,79.64
2023-05-08T05:28:53.764Z,79.38
2023-05-08T05:29:53.788Z,78.97
2023-05-08T05:30:53.753Z,78.36
2023-05-08T05:31:53.906Z,79.58
2023-05-08T05:32:53.843Z,79.48
2023-05-08T05:33:53.760Z,79.17
2023-05-08T05:34:53.776Z,78.87
2023-05-08T05:35:53.696Z,79.27
2023-05-08T05:36:53.687Z,78.56
2023-05-08T05:37:53.715Z,78.97
2023-05-08T05:38:54.209Z,78.87
2023-05-08T05:39:53.719Z,78.93
2023-05-08T05:40:53.749Z,78.42
2023-05-08T05:41:53.689Z,78.42
2023-05-08T05:42:53.718Z,78.93
2023-05-08T05:43:53.711Z,79.34
2023-05-08T05:44:53.693Z,79.54
2023-05-08T05:45:54.636Z,79.81
2023-05-08T05:47:25.624Z,78.69
2023-05-08T05:47:53.692Z,77.94
2023-05-08T05:48:53.636Z,77.84
2023-05-08T05:49:53.675Z,77.09
2023-05-08T05:50:53.682Z,76.38
2023-05-08T05:51:53.661Z,76.52
2023-05-08T05:52:53.642Z,76.82
2023-05-08T05:53:53.617Z,76.52
2023-05-08T05:54:53.633Z,76.11
2023-05-08T05:55:53.590Z,76.42
2023-05-08T05:56:53.592Z,76.42
2023-05-08T05:57:53.547Z,76.18
2023-05-08T05:58:53.587Z,75.98
2023-05-08T05:59:54.816Z,75.98
2023-05-08T06:00:54.606Z,76.38
2023-05-08T06:01:53.643Z,76.34
2023-05-08T06:02:53.726Z,74.82
2023-05-08T06:03:53.661Z,74.45
2023-05-08T06:04:53.534Z,75.43
2023-05-08T06:05:54.337Z,75.23
2023-05-08T06:06:53.650Z,74.48
2023-05-08T06:07:53.515Z,75.26
2023-05-08T06:08:54.484Z,74.88
2023-05-08T06:09:53.499Z,73.63
2023-05-08T06:10:53.473Z,73.19
2023-05-08T06:11:53.521Z,72.82
2023-05-08T06:12:53.448Z,74.01
2023-05-08T06:13:53.499Z,73.09
2023-05-08T06:14:53.470Z,72.28
2023-05-08T06:15:53.522Z,72.25
2023-05-08T06:16:54.477Z,72.78
2023-05-08T06:17:53.434Z,72.65
2023-05-08T06:18:53.433Z,72.04
2023-05-08T06:19:53.451Z,71.53
2023-05-08T06:20:53.390Z,71.84
2023-05-08T06:21:53.408Z,71.73
2023-05-08T06:23:09.800Z,71.23
2023-05-08T06:23:54.373Z,71.13
2023-05-08T06:24:53.378Z,71.00
2023-05-08T06:25:53.434Z,71.84
2023-05-08T06:26:53.376Z,71.00
2023-05-08T06:27:53.464Z,70.48
2023-05-08T06:28:53.358Z,70.28
2023-05-08T06:29:53.365Z,70.55
2023-05-08T06:30:53.388Z,71.88
2023-05-08T06:31:53.370Z,72.28
2023-05-08T06:32:53.391Z,72.89
2023-05-08T06:33:53.355Z,72.14
2023-05-08T06:34:53.369Z,71.64
2023-05-08T06:35:53.295Z,71.84
2023-05-08T06:36:53.249Z,71.91
2023-05-08T06:37:53.284Z,71.20
2023-05-08T06:38:53.356Z,72.01
2023-05-08T06:40:03.853Z,72.01
2023-05-08T06:40:55.307Z,71.06
2023-05-08T06:41:54.280Z,71.06
2023-05-08T06:42:53.244Z,70.65
2023-05-08T06:43:53.353Z,70.42
2023-05-08T06:44:53.244Z,70.15
2023-05-08T06:45:53.263Z,70.56
2023-05-08T06:46:53.280Z,70.76
2023-05-08T06:47:53.205Z,70.05
2023-05-08T06:48:53.233Z,70.39
2023-05-08T06:49:53.999Z,70.56
2023-05-08T06:50:53.196Z,69.95
2023-05-08T06:51:54.018Z,70.45
2023-05-08T06:52:53.162Z,69.84
2023-05-08T06:53:53.232Z,70.56
2023-05-08T06:54:53.176Z,70.69
2023-05-08T06:55:54.198Z,71.80
2023-05-08T06:56:53.128Z,70.79
2023-05-08T06:57:53.177Z,70.25
2023-05-08T06:59:04.571Z,70.18
2023-05-08T06:59:55.175Z,70.72
2023-05-08T07:00:53.231Z,72.34
2023-05-08T07:01:53.158Z,72.28
2023-05-08T07:02:53.192Z,72.17
2023-05-08T07:03:53.115Z,72.11
2023-05-08T07:04:53.128Z,72.01
2023-05-08T07:05:53.150Z,71.47
2023-05-08T07:06:53.077Z,70.62
2023-05-08T07:07:53.111Z,70.42
2023-05-08T07:08:53.082Z,69.37
2023-05-08T07:09:53.118Z,68.53
2023-05-08T07:10:53.095Z,68.90
2023-05-08T07:11:53.061Z,68.43
2023-05-08T07:12:53.218Z,68.23
2023-05-08T07:13:53.049Z,68.53
2023-05-08T07:14:53.809Z,68.49
2023-05-08T07:15:53.069Z,69.92
2023-05-08T07:16:53.122Z,70.65
2023-05-08T07:17:53.199Z,70.65
2023-05-08T07:18:53.059Z,71.30
2023-05-08T07:19:53.002Z,72.72
2023-05-08T07:20:52.991Z,72.11
2023-05-08T07:21:53.037Z,71.16
2023-05-08T07:22:53.017Z,70.79
2023-05-08T07:23:52.976Z,70.45
2023-05-08T07:24:52.969Z,70.69
2023-05-08T07:25:53.952Z,71.33
2023-05-08T07:26:52.961Z,72.04
2023-05-08T07:27:52.999Z,71.94
2023-05-08T07:28:52.976Z,72.85
2023-05-08T07:29:52.897Z,72.65
2023-05-08T07:30:52.923Z,72.75
2023-05-08T07:31:52.975Z,72.82
2023-05-08T07:32:53.104Z,72.52
2023-05-08T07:33:52.892Z,72.58
2023-05-08T07:34:52.898Z,73.16
2023-05-08T07:35:52.898Z,72.45
2023-05-08T07:36:52.919Z,71.23
2023-05-08T07:37:52.990Z,70.59
2023-05-08T07:38:52.896Z,70.08
2023-05-08T07:39:52.958Z,70.39
2023-05-08T07:40:52.892Z,70.18
2023-05-08T07:41:52.945Z,70.45
2023-05-08T07:42:52.878Z,69.98
2023-05-08T07:43:52.871Z,70.21
2023-05-08T07:44:55.246Z,70.76
2023-05-08T07:45:53.842Z,70.76
2023-05-08T07:46:52.848Z,72.38
2023-05-08T07:47:52.816Z,72.61
2023-05-08T07:48:52.802Z,72.38
2023-05-08T07:49:53.049Z,72.38
2023-05-08T07:50:52.771Z,72.17
2023-05-08T07:51:52.748Z,72.58
2023-05-08T07:52:52.965Z,72.08
2023-05-08T07:53:52.734Z,71.94
2023-05-08T07:54:52.732Z,71.23
2023-05-08T07:55:52.762Z,70.42
2023-05-08T07:56:52.864Z,70.93
2023-05-08T07:57:52.725Z,70.93
2023-05-08T07:58:52.683Z,70.62
2023-05-08T07:59:52.726Z,70.32
2023-05-08T08:00:52.799Z,71.23
2023-05-08T08:01:52.739Z,71.33
2023-05-08T08:02:52.906Z,71.80
2023-05-08T08:03:52.765Z,70.52
2023-05-08T08:04:52.672Z,70.93
2023-05-08T08:05:52.733Z,70.89
2023-05-08T08:06:52.664Z,70.49
2023-05-08T08:07:52.647Z,70.49
2023-05-08T08:08:52.652Z,70.29
2023-05-08T08:09:52.630Z,70.59
2023-05-08T08:11:03.805Z,70.65
2023-05-08T08:11:53.679Z,70.59
2023-05-08T08:12:52.651Z,70.45
2023-05-08T08:13:52.633Z,70.39
2023-05-08T08:14:52.617Z,70.36
2023-05-08T08:15:52.670Z,70.86
2023-05-08T08:16:52.846Z,70.56
2023-05-08T08:17:52.650Z,70.96
2023-05-08T08:18:52.594Z,71.77
2023-05-08T08:19:52.608Z,71.33
2023-05-08T08:20:52.561Z,71.00
2023-05-08T08:21:52.609Z,72.52
2023-05-08T08:22:52.550Z,71.84
2023-05-08T08:23:52.557Z,70.39
2023-05-08T08:24:54.895Z,70.49
2023-05-08T08:25:53.514Z,72.45
2023-05-08T08:26:52.558Z,73.46
2023-05-08T08:27:52.591Z,72.61
2023-05-08T08:28:52.473Z,72.14
2023-05-08T08:29:58.793Z,72.72
2023-05-08T08:30:54.555Z,74.27
2023-05-08T08:31:52.481Z,75.56
2023-05-08T08:32:52.702Z,74.27
2023-05-08T08:33:52.454Z,75.19
2023-05-08T08:34:52.470Z,76.10
2023-05-08T08:35:52.476Z,75.76
2023-05-08T08:36:52.469Z,74.51
2023-05-08T08:37:52.435Z,74.37
2023-05-08T08:38:52.496Z,72.81
2023-05-08T08:39:52.437Z,72.48
2023-05-08T08:40:52.435Z,72.61
2023-05-08T08:41:52.405Z,72.11
2023-05-08T08:42:52.416Z,73.53
2023-05-08T08:43:52.464Z,73.56
2023-05-08T08:44:52.391Z,73.66
2023-05-08T08:45:52.459Z,74.17
2023-05-08T08:46:52.546Z,72.41
2023-05-08T08:47:52.461Z,73.46
2023-05-08T08:48:52.397Z,74.57
2023-05-08T08:49:52.476Z,73.02
2023-05-08T08:50:52.330Z,72.48
2023-05-08T08:51:52.330Z,72.17
2023-05-08T08:52:52.327Z,74.57
2023-05-08T08:53:52.366Z,73.63
2023-05-08T08:54:52.392Z,71.67
2023-05-08T08:55:52.459Z,70.42
2023-05-08T08:56:52.287Z,69.15
2023-05-08T08:57:52.317Z,68.84
2023-05-08T08:58:52.380Z,66.99
2023-05-08T08:59:52.326Z,66.69
2023-05-08T09:00:52.332Z,66.29
2023-05-08T09:01:52.347Z,66.69
2023-05-08T09:02:52.339Z,66.96
2023-05-08T09:03:52.458Z,65.35
2023-05-08T09:04:52.338Z,66.66
2023-05-08T09:05:52.254Z,65.82
2023-05-08T09:06:52.253Z,64.72
2023-05-08T09:07:52.237Z,63.90
2023-05-08T09:08:52.287Z,64.54
2023-05-08T09:09:52.234Z,65.32
2023-05-08T09:10:52.196Z,65.22
2023-05-08T09:11:52.241Z,64.41
2023-05-08T09:13:00.080Z,64.61
2023-05-08T09:13:52.175Z,65.79
2023-05-08T09:14:52.195Z,67.00
2023-05-08T09:15:52.252Z,66.90
2023-05-08T09:16:52.358Z,66.53
2023-05-08T09:17:52.219Z,66.53
2023-05-08T09:18:52.196Z,66.93
2023-05-08T09:19:52.154Z,66.76
2023-05-08T09:20:52.207Z,67.36
2023-05-08T09:21:52.076Z,68.27
2023-05-08T09:22:52.193Z,67.33
2023-05-08T09:23:52.115Z,66.46
2023-05-08T09:24:52.156Z,67.97
2023-05-08T09:25:52.144Z,67.97
2023-05-08T09:26:52.113Z,67.94
2023-05-08T09:27:52.144Z,67.84
2023-05-08T09:28:52.089Z,67.13
2023-05-08T09:29:52.115Z,66.93
2023-05-08T09:30:53.075Z,68.01
2023-05-08T09:31:52.121Z,67.71
2023-05-08T09:32:52.200Z,68.31
2023-05-08T09:33:52.157Z,68.28
2023-05-08T09:34:52.057Z,67.94
2023-05-08T09:35:52.023Z,65.42
2023-05-08T09:36:52.123Z,65.12
2023-05-08T09:37:52.040Z,64.42
2023-05-08T09:38:52.052Z,64.62
2023-05-08T09:39:52.030Z,66.03
2023-05-08T09:40:51.968Z,64.62
2023-05-08T09:41:52.000Z,64.62
2023-05-08T09:42:52.003Z,63.92
2023-05-08T09:43:51.964Z,63.42
2023-05-08T09:44:52.022Z,63.59
2023-05-08T09:45:52.017Z,64.62
2023-05-08T09:46:51.976Z,65.22
2023-05-08T09:47:51.972Z,66.50
2023-05-08T09:48:51.971Z,66.27
2023-05-08T09:49:51.995Z,64.26
2023-05-08T09:50:51.971Z,66.40
2023-05-08T09:51:51.915Z,65.06
2023-05-08T09:52:52.040Z,64.16
2023-05-08T09:53:51.999Z,64.50
2023-05-08T09:54:51.926Z,63.67
2023-05-08T09:55:51.894Z,62.53
2023-05-08T09:56:51.854Z,62.73
2023-05-08T09:57:51.876Z,62.03
2023-05-08T09:58:51.939Z,61.10
2023-05-08T09:59:51.895Z,61.77
2023-05-08T10:00:51.949Z,61.24
2023-05-08T10:01:51.874Z,60.57
2023-05-08T10:02:51.924Z,59.33
2023-05-08T10:03:51.875Z,58.43
2023-05-08T10:04:51.991Z,58.40
2023-05-08T10:05:51.811Z,56.33
2023-05-08T10:06:52.340Z,57.28
2023-05-08T10:07:52.053Z,59.29
2023-05-08T10:08:51.859Z,59.19
2023-05-08T10:09:51.794Z,60.47
2023-05-08T10:10:52.442Z,59.36
2023-05-08T10:11:51.908Z,59.13
2023-05-08T10:12:51.841Z,59.31
2023-05-08T10:13:51.772Z,58.20
2023-05-08T10:14:51.767Z,59.44
2023-05-08T10:15:51.774Z,59.31
2023-05-08T10:16:51.843Z,59.44
2023-05-08T10:17:52.796Z,59.41
2023-05-08T10:18:51.776Z,59.44
2023-05-08T10:19:51.717Z,58.73
2023-05-08T10:20:51.716Z,58.56
2023-05-08T10:21:51.732Z,58.89
2023-05-08T10:22:51.776Z,59.79
2023-05-08T10:23:51.752Z,59.22
2023-05-08T10:24:51.791Z,60.32
2023-05-08T10:25:54.115Z,60.42
2023-05-08T10:27:05.568Z,60.22
2023-05-08T10:27:53.687Z,60.69
2023-05-08T10:28:51.670Z,61.17
2023-05-08T10:29:51.655Z,59.86
2023-05-08T10:30:51.663Z,59.64
2023-05-08T10:31:51.757Z,59.33
2023-05-08T10:32:51.685Z,59.00
2023-05-08T10:33:52.074Z,60.51
2023-05-08T10:34:51.687Z,59.08
2023-05-08T10:35:51.868Z,58.58
2023-05-08T10:36:53.904Z,58.95
2023-05-08T10:37:51.807Z,58.45
2023-05-08T10:38:51.894Z,58.35
2023-05-08T10:39:51.607Z,57.82
2023-05-08T10:40:51.630Z,58.32
2023-05-08T10:41:51.573Z,58.19
2023-05-08T10:42:51.581Z,55.99
2023-05-08T10:43:51.603Z,55.99
2023-05-08T10:44:51.619Z,56.09
2023-05-08T10:45:51.804Z,55.72
2023-05-08T10:46:51.630Z,56.82
2023-05-08T10:47:51.671Z,56.52
2023-05-08T10:48:51.564Z,56.02
2023-05-08T10:49:51.694Z,55.02
2023-05-08T10:50:51.624Z,55.15
2023-05-08T10:51:51.498Z,57.05
2023-05-08T10:52:51.520Z,56.57
2023-05-08T10:53:51.496Z,56.77
2023-05-08T10:54:51.482Z,55.67
2023-05-08T10:55:51.515Z,55.30
2023-05-08T10:56:51.478Z,57.15
2023-05-08T10:57:51.456Z,57.83
2023-05-08T10:58:51.461Z,58.23
2023-05-08T10:59:51.472Z,57.10
2023-05-08T11:00:51.480Z,57.20
2023-05-08T11:01:51.532Z,56.48
2023-05-08T11:03:31.487Z,58.95
2023-05-08T11:03:52.558Z,58.32
2023-05-08T11:04:51.472Z,56.99
2023-05-08T11:06:23.453Z,55.47
2023-05-08T11:06:51.441Z,55.36
2023-05-08T11:07:51.405Z,54.94
2023-05-08T11:08:51.511Z,52.84
2023-05-08T11:09:51.347Z,54.86
2023-05-08T11:10:51.369Z,55.36
2023-05-08T11:11:51.426Z,54.90
2023-05-08T11:12:51.406Z,57.42
2023-05-08T11:13:51.380Z,56.92
2023-05-08T11:14:51.354Z,58.39
2023-05-08T11:15:51.404Z,57.59
2023-05-08T11:16:56.496Z,57.17
2023-05-08T11:17:51.581Z,56.37
2023-05-08T11:18:51.558Z,55.34
2023-05-08T11:19:52.095Z,55.34
2023-05-08T11:20:51.329Z,55.34
2023-05-08T11:21:51.549Z,53.92
2023-05-08T11:22:51.330Z,54.22
2023-05-08T11:23:52.273Z,53.52
2023-05-08T11:24:51.850Z,54.32
2023-05-08T11:25:51.295Z,55.02
2023-05-08T11:26:51.451Z,55.32
2023-05-08T11:27:51.401Z,55.14
2023-05-08T11:28:51.513Z,56.34
2023-05-08T11:29:51.290Z,57.31
2023-05-08T11:30:51.392Z,56.18
2023-05-08T11:31:51.290Z,55.96
2023-05-08T11:32:51.593Z,55.66
2023-05-08T11:33:51.209Z,54.57
2023-05-08T11:34:52.266Z,53.66
2023-05-08T11:35:51.234Z,54.86
2023-05-08T11:36:51.452Z,54.66
2023-05-08T11:37:52.116Z,54.96
2023-05-08T11:38:51.549Z,54.46
2023-05-08T11:39:51.567Z,54.36
2023-05-08T11:40:51.773Z,53.59
2023-05-08T11:41:51.459Z,55.19
2023-05-08T11:42:51.417Z,53.89
2023-05-08T11:43:51.566Z,54.59
2023-05-08T11:44:51.276Z,54.22
2023-05-08T11:45:51.216Z,55.02
2023-05-08T11:46:51.240Z,54.79
2023-05-08T11:47:51.208Z,54.69
2023-05-08T11:48:51.250Z,55.09
2023-05-08T11:49:51.231Z,55.16
2023-05-08T11:50:51.442Z,55.46
2023-05-08T11:51:51.095Z,56.48
2023-05-08T11:52:51.157Z,55.39
2023-05-08T11:53:51.515Z,55.69
2023-05-08T11:54:51.165Z,56.36
2023-05-08T11:55:51.244Z,55.66
2023-05-08T11:56:51.783Z,56.48
2023-05-08T11:57:51.161Z,57.91
2023-05-08T11:58:51.080Z,56.48
2023-05-08T11:59:51.196Z,56.51
2023-05-08T12:00:51.235Z,59.04
2023-05-08T12:02:06.948Z,58.69
2023-05-08T12:02:53.213Z,58.99
2023-05-08T12:03:51.216Z,58.06
2023-05-08T12:04:51.372Z,56.70
2023-05-08T12:05:51.194Z,56.04
2023-05-08T12:06:51.133Z,55.54
2023-05-08T12:07:51.000Z,56.44
2023-05-08T12:08:51.137Z,56.04
2023-05-08T12:09:51.054Z,56.34
2023-05-08T12:10:51.023Z,56.64
2023-05-08T12:11:51.050Z,56.74
2023-05-08T12:12:51.363Z,57.14
2023-05-08T12:13:50.913Z,56.89
2023-05-08T12:14:51.266Z,59.25
2023-05-08T12:15:51.305Z,59.58
2023-05-08T12:16:50.952Z,61.84
2023-05-08T12:17:51.120Z,63.64
2023-05-08T12:18:50.920Z,61.64
2023-05-08T12:19:51.003Z,61.84
2023-05-08T12:20:50.963Z,62.70
2023-05-08T12:21:50.926Z,63.17
2023-05-08T12:22:50.996Z,63.70
2023-05-08T12:23:50.878Z,63.20
2023-05-08T12:24:50.971Z,62.67
2023-05-08T12:25:52.666Z,61.84
2023-05-08T12:26:51.024Z,63.28
2023-05-08T12:27:51.007Z,61.07
2023-05-08T12:28:50.915Z,62.17
2023-05-08T12:29:50.858Z,63.20
2023-05-08T12:30:50.840Z,64.91
2023-05-08T12:31:50.855Z,65.01
2023-05-08T12:32:50.904Z,65.11
2023-05-08T12:33:51.076Z,63.81
2023-05-08T12:34:51.275Z,64.18
2023-05-08T12:35:50.805Z,64.18
2023-05-08T12:36:50.808Z,64.58
2023-05-08T12:37:51.812Z,63.60
2023-05-08T12:38:50.857Z,64.07
2023-05-08T12:39:50.789Z,64.98
2023-05-08T12:40:50.996Z,65.51
2023-05-08T12:41:50.767Z,64.31
2023-05-08T12:42:50.804Z,65.01
2023-05-08T12:43:50.889Z,65.68
2023-05-08T12:44:51.338Z,65.85
2023-05-08T12:45:50.868Z,60.28
2023-05-08T12:46:50.929Z,60.98
2023-05-08T12:47:50.924Z,61.68
2023-05-08T12:48:50.817Z,62.05
2023-05-08T12:49:50.894Z,62.99
2023-05-08T12:50:50.773Z,60.49
2023-05-08T12:51:50.781Z,63.19
2023-05-08T12:52:51.966Z,60.32